EZY13PC EGPH-EGKK
Flight info
| Callsign | EZY13PC |
|---|---|
| Flight time | 0h 59m |
| Altitude | 33000 |
| Route | GOSAM P600 FENIK L612 NAVSO DCT KEPAD L151 DISIT |
| Aircraft | A320/M-SDE3FGHIRWY/LB1 |
Departure
| Time | 2026-05-05 17:01 |
|---|---|
| Airport | Edinburgh Airport (EGPH) |
Arrival
| Time | 2026-05-05 18:00 |
|---|---|
| Airport | London Gatwick Airport (EGKK) |
| Time | Latitude | Longitude | Altitude | Speed | Heading |
|---|---|---|---|---|---|
| 2026-05-05 16:27 | 55.94878 | -3.36546 | 101 ft | 0 kts | 148° |
| 2026-05-05 16:50 | 55.94890 | -3.36559 | 101 ft | 3 kts | 153° |
| 2026-05-05 16:51 | 55.94910 | -3.36575 | 103 ft | 3 kts | 163° |
| 2026-05-05 16:51 | 55.94932 | -3.36582 | 105 ft | 3 kts | 181° |
| 2026-05-05 16:51 | 55.94952 | -3.36576 | 107 ft | 3 kts | 219° |
| 2026-05-05 16:51 | 55.94959 | -3.36564 | 106 ft | 1 kts | 238° |
| 2026-05-05 16:54 | 55.94959 | -3.36565 | 107 ft | 0 kts | 239° |
| 2026-05-05 16:54 | 55.94954 | -3.36580 | 106 ft | 2 kts | 240° |
| 2026-05-05 16:55 | 55.94946 | -3.36607 | 107 ft | 3 kts | 241° |
| 2026-05-05 16:55 | 55.94932 | -3.36649 | 107 ft | 5 kts | 238° |
| 2026-05-05 16:55 | 55.94908 | -3.36723 | 106 ft | 7 kts | 240° |
| 2026-05-05 16:55 | 55.94903 | -3.36794 | 109 ft | 6 kts | 293° |
| 2026-05-05 16:56 | 55.94926 | -3.36883 | 107 ft | 11 kts | 265° |
| 2026-05-05 16:56 | 55.94882 | -3.37028 | 109 ft | 14 kts | 238° |
| 2026-05-05 16:56 | 55.94836 | -3.37164 | 109 ft | 12 kts | 239° |
| 2026-05-05 16:56 | 55.94792 | -3.37294 | 111 ft | 11 kts | 239° |
| 2026-05-05 16:57 | 55.94757 | -3.37401 | 113 ft | 12 kts | 239° |
| 2026-05-05 16:57 | 55.94703 | -3.37560 | 114 ft | 17 kts | 238° |
| 2026-05-05 16:57 | 55.94642 | -3.37741 | 114 ft | 16 kts | 238° |
| 2026-05-05 16:57 | 55.94584 | -3.37911 | 114 ft | 16 kts | 239° |
| 2026-05-05 16:58 | 55.94521 | -3.38092 | 113 ft | 21 kts | 238° |
| 2026-05-05 16:58 | 55.94444 | -3.38319 | 114 ft | 21 kts | 238° |
| 2026-05-05 16:58 | 55.94375 | -3.38527 | 116 ft | 18 kts | 240° |
| 2026-05-05 16:58 | 55.94321 | -3.38691 | 120 ft | 14 kts | 238° |
| 2026-05-05 16:59 | 55.94284 | -3.38833 | 122 ft | 11 kts | 268° |
| 2026-05-05 16:59 | 55.94335 | -3.38917 | 123 ft | 10 kts | 328° |
| 2026-05-05 16:59 | 55.94404 | -3.38962 | 119 ft | 12 kts | 12° |
| 2026-05-05 16:59 | 55.94456 | -3.38853 | 118 ft | 9 kts | 59° |
| 2026-05-05 17:00 | 55.94460 | -3.38840 | 119 ft | 0 kts | 59° |
| 2026-05-05 17:00 | 55.94487 | -3.38760 | 117 ft | 35 kts | 59° |
| 2026-05-05 17:00 | 55.94740 | -3.38015 | 119 ft | 101 kts | 59° |
| 2026-05-05 17:00 | 55.95198 | -3.36652 | 118 ft | 152 kts | 61° |
| 2026-05-05 17:01 | 55.95757 | -3.34998 | 703 ft | 156 kts | 60° |
| 2026-05-05 17:01 | 55.96451 | -3.33488 | 1433 ft | 162 kts | 38° |
| 2026-05-05 17:01 | 55.97354 | -3.32073 | 1755 ft | 184 kts | 36° |
| 2026-05-05 17:01 | 55.98365 | -3.30518 | 2146 ft | 200 kts | 37° |
| 2026-05-05 17:02 | 55.99476 | -3.28827 | 2468 ft | 221 kts | 30° |
| 2026-05-05 17:02 | 56.00967 | -3.28076 | 2810 ft | 234 kts | 351° |
| 2026-05-05 17:02 | 56.02466 | -3.29244 | 3309 ft | 243 kts | 314° |
| 2026-05-05 17:02 | 56.03256 | -3.31885 | 4112 ft | 248 kts | 278° |
| 2026-05-05 17:03 | 56.03111 | -3.34973 | 4997 ft | 253 kts | 260° |
| 2026-05-05 17:03 | 56.02699 | -3.38071 | 5789 ft | 257 kts | 257° |
| 2026-05-05 17:03 | 56.02233 | -3.41163 | 6574 ft | 259 kts | 256° |
| 2026-05-05 17:03 | 56.01752 | -3.44294 | 7411 ft | 263 kts | 256° |
| 2026-05-05 17:04 | 56.01272 | -3.47463 | 8267 ft | 265 kts | 256° |
| 2026-05-05 17:04 | 56.00803 | -3.50625 | 9115 ft | 268 kts | 257° |
| 2026-05-05 17:04 | 56.00331 | -3.53867 | 9951 ft | 271 kts | 257° |
| 2026-05-05 17:04 | 55.99856 | -3.57163 | 10547 ft | 283 kts | 257° |
| 2026-05-05 17:05 | 55.99349 | -3.60704 | 10773 ft | 306 kts | 257° |
| 2026-05-05 17:05 | 55.98805 | -3.64536 | 10968 ft | 329 kts | 257° |
| 2026-05-05 17:05 | 55.98235 | -3.68558 | 11448 ft | 339 kts | 257° |
| 2026-05-05 17:05 | 55.97649 | -3.72661 | 12117 ft | 343 kts | 257° |
| 2026-05-05 17:06 | 55.97054 | -3.76819 | 12822 ft | 347 kts | 257° |
| 2026-05-05 17:06 | 55.96450 | -3.81007 | 13539 ft | 350 kts | 257° |
| 2026-05-05 17:06 | 55.95833 | -3.85242 | 14187 ft | 354 kts | 257° |
| 2026-05-05 17:06 | 55.95209 | -3.89507 | 14800 ft | 357 kts | 257° |
| 2026-05-05 17:07 | 55.94577 | -3.93809 | 15403 ft | 360 kts | 257° |
| 2026-05-05 17:07 | 55.93852 | -3.98104 | 15996 ft | 365 kts | 249° |
| 2026-05-05 17:07 | 55.92544 | -4.02024 | 16570 ft | 373 kts | 233° |
| 2026-05-05 17:07 | 55.90628 | -4.05185 | 17131 ft | 381 kts | 219° |
| 2026-05-05 17:08 | 55.88459 | -4.07941 | 17707 ft | 384 kts | 219° |
| 2026-05-05 17:08 | 55.86269 | -4.10712 | 18265 ft | 388 kts | 219° |
| 2026-05-05 17:08 | 55.84068 | -4.13496 | 18745 ft | 391 kts | 219° |
| 2026-05-05 17:08 | 55.81838 | -4.16314 | 19253 ft | 393 kts | 219° |
| 2026-05-05 17:09 | 55.79602 | -4.19130 | 19740 ft | 395 kts | 218° |
| 2026-05-05 17:09 | 55.78067 | -4.21004 | 20077 ft | 398 kts | 215° |
| 2026-05-05 17:09 | 55.75529 | -4.23187 | 20551 ft | 406 kts | 202° |
| 2026-05-05 17:09 | 55.72767 | -4.24382 | 21024 ft | 413 kts | 191° |
| 2026-05-05 17:10 | 55.69867 | -4.24542 | 21488 ft | 420 kts | 179° |
| 2026-05-05 17:10 | 55.66965 | -4.23683 | 21955 ft | 427 kts | 167° |
| 2026-05-05 17:10 | 55.64148 | -4.21897 | 22397 ft | 433 kts | 158° |
| 2026-05-05 17:10 | 55.61475 | -4.19386 | 22846 ft | 437 kts | 153° |
| 2026-05-05 17:11 | 55.58814 | -4.16757 | 23306 ft | 439 kts | 153° |
| 2026-05-05 17:11 | 55.56145 | -4.14127 | 23738 ft | 441 kts | 153° |
| 2026-05-05 17:11 | 55.53452 | -4.11488 | 24099 ft | 443 kts | 153° |
| 2026-05-05 17:11 | 55.50758 | -4.08861 | 24460 ft | 444 kts | 153° |
| 2026-05-05 17:12 | 55.48044 | -4.06217 | 24815 ft | 446 kts | 153° |
| 2026-05-05 17:12 | 55.46240 | -4.04463 | 25046 ft | 448 kts | 153° |
| 2026-05-05 17:12 | 55.43509 | -4.01813 | 25400 ft | 449 kts | 153° |
| 2026-05-05 17:12 | 55.40761 | -3.99152 | 25753 ft | 451 kts | 153° |
| 2026-05-05 17:13 | 55.38003 | -3.96485 | 26087 ft | 453 kts | 153° |
| 2026-05-05 17:13 | 55.35235 | -3.93814 | 26424 ft | 455 kts | 153° |
| 2026-05-05 17:13 | 55.32445 | -3.91126 | 26748 ft | 457 kts | 153° |
| 2026-05-05 17:13 | 55.29653 | -3.88440 | 27054 ft | 459 kts | 153° |
| 2026-05-05 17:14 | 55.26842 | -3.85740 | 27364 ft | 461 kts | 153° |
| 2026-05-05 17:14 | 55.24022 | -3.83035 | 27652 ft | 463 kts | 154° |
| 2026-05-05 17:14 | 55.21098 | -3.80681 | 27934 ft | 463 kts | 162° |
| 2026-05-05 17:14 | 55.18051 | -3.78870 | 28214 ft | 464 kts | 163° |
| 2026-05-05 17:15 | 55.15099 | -3.77144 | 28485 ft | 466 kts | 163° |
| 2026-05-05 17:15 | 55.11931 | -3.75292 | 28774 ft | 468 kts | 163° |
| 2026-05-05 17:15 | 55.08838 | -3.73484 | 29141 ft | 467 kts | 163° |
| 2026-05-05 17:15 | 55.06384 | -3.72050 | 29477 ft | 466 kts | 163° |
| 2026-05-05 17:16 | 55.03313 | -3.70257 | 29883 ft | 466 kts | 163° |
| 2026-05-05 17:16 | 55.00238 | -3.68466 | 30262 ft | 465 kts | 163° |
| 2026-05-05 17:16 | 54.97173 | -3.66686 | 30603 ft | 464 kts | 163° |
| 2026-05-05 17:16 | 54.94117 | -3.64914 | 30929 ft | 463 kts | 163° |
| 2026-05-05 17:17 | 54.91059 | -3.63146 | 31034 ft | 463 kts | 163° |
| 2026-05-05 17:17 | 54.87999 | -3.61381 | 31050 ft | 463 kts | 163° |
| 2026-05-05 17:17 | 54.81893 | -3.57860 | 31042 ft | 463 kts | 163° |
| 2026-05-05 17:18 | 54.75786 | -3.54338 | 31046 ft | 463 kts | 163° |
| 2026-05-05 17:18 | 54.69670 | -3.50835 | 31036 ft | 463 kts | 163° |
| 2026-05-05 17:19 | 54.63585 | -3.47364 | 31040 ft | 463 kts | 163° |
| 2026-05-05 17:19 | 54.57441 | -3.43869 | 31036 ft | 463 kts | 163° |
| 2026-05-05 17:20 | 54.51323 | -3.40401 | 31037 ft | 463 kts | 163° |
| 2026-05-05 17:20 | 54.45200 | -3.36939 | 31034 ft | 463 kts | 163° |
| 2026-05-05 17:21 | 54.39090 | -3.33489 | 31039 ft | 463 kts | 163° |
| 2026-05-05 17:22 | 54.29917 | -3.28341 | 31036 ft | 462 kts | 162° |
| 2026-05-05 17:22 | 54.23810 | -3.24919 | 31044 ft | 461 kts | 162° |
| 2026-05-05 17:23 | 54.17705 | -3.21514 | 31044 ft | 461 kts | 162° |
| 2026-05-05 17:23 | 54.11655 | -3.18146 | 31049 ft | 460 kts | 162° |
| 2026-05-05 17:24 | 54.05565 | -3.14771 | 31059 ft | 460 kts | 162° |
| 2026-05-05 17:24 | 53.99490 | -3.11413 | 31065 ft | 459 kts | 162° |
| 2026-05-05 17:25 | 53.93420 | -3.08069 | 31069 ft | 458 kts | 162° |
| 2026-05-05 17:25 | 53.87357 | -3.04736 | 31076 ft | 458 kts | 161° |
| 2026-05-05 17:26 | 53.81301 | -3.01417 | 31075 ft | 457 kts | 161° |
| 2026-05-05 17:26 | 53.75245 | -2.98110 | 31077 ft | 457 kts | 161° |
| 2026-05-05 17:27 | 53.69195 | -2.94821 | 31045 ft | 456 kts | 161° |
| 2026-05-05 17:27 | 53.63152 | -2.91542 | 31048 ft | 456 kts | 161° |
| 2026-05-05 17:28 | 53.57113 | -2.88276 | 31047 ft | 456 kts | 161° |
| 2026-05-05 17:28 | 53.51073 | -2.85015 | 31066 ft | 456 kts | 161° |
| 2026-05-05 17:29 | 53.45029 | -2.81760 | 31067 ft | 456 kts | 161° |
| 2026-05-05 17:29 | 53.38984 | -2.78514 | 31070 ft | 456 kts | 161° |
| 2026-05-05 17:30 | 53.32962 | -2.75294 | 31070 ft | 456 kts | 161° |
| 2026-05-05 17:30 | 53.26916 | -2.72075 | 31070 ft | 456 kts | 161° |
| 2026-05-05 17:31 | 53.20866 | -2.68862 | 31063 ft | 456 kts | 161° |
| 2026-05-05 17:31 | 53.14818 | -2.65656 | 31063 ft | 456 kts | 161° |
| 2026-05-05 17:32 | 53.08772 | -2.62455 | 31057 ft | 456 kts | 161° |
| 2026-05-05 17:32 | 53.02723 | -2.59260 | 31047 ft | 456 kts | 161° |
| 2026-05-05 17:33 | 52.96678 | -2.56092 | 31046 ft | 456 kts | 161° |
| 2026-05-05 17:33 | 52.90638 | -2.52934 | 31046 ft | 455 kts | 161° |
| 2026-05-05 17:34 | 52.84629 | -2.49794 | 31050 ft | 455 kts | 161° |
| 2026-05-05 17:34 | 52.78880 | -2.45575 | 31044 ft | 452 kts | 146° |
| 2026-05-05 17:35 | 52.74507 | -2.40735 | 31041 ft | 452 kts | 145° |
| 2026-05-05 17:35 | 52.69539 | -2.35260 | 31037 ft | 451 kts | 145° |
| 2026-05-05 17:36 | 52.64301 | -2.29524 | 31046 ft | 451 kts | 146° |
| 2026-05-05 17:36 | 52.59086 | -2.23804 | 30971 ft | 451 kts | 146° |
| 2026-05-05 17:36 | 52.56476 | -2.20945 | 30716 ft | 450 kts | 146° |
| 2026-05-05 17:37 | 52.54053 | -2.18297 | 30484 ft | 450 kts | 147° |
| 2026-05-05 17:37 | 52.52319 | -2.16407 | 30322 ft | 450 kts | 147° |
| 2026-05-05 17:37 | 52.48820 | -2.12600 | 29968 ft | 450 kts | 147° |
| 2026-05-05 17:37 | 52.46206 | -2.09758 | 29691 ft | 451 kts | 147° |
| 2026-05-05 17:38 | 52.43594 | -2.06922 | 29404 ft | 451 kts | 148° |
| 2026-05-05 17:38 | 52.40972 | -2.04076 | 29093 ft | 452 kts | 148° |
| 2026-05-05 17:38 | 52.38347 | -2.01233 | 27984 ft | 455 kts | 148° |
| 2026-05-05 17:38 | 52.35686 | -1.98360 | 26760 ft | 461 kts | 148° |
| 2026-05-05 17:39 | 52.33015 | -1.95478 | 26055 ft | 456 kts | 148° |
| 2026-05-05 17:39 | 52.30382 | -1.92639 | 25341 ft | 451 kts | 148° |
| 2026-05-05 17:39 | 52.27780 | -1.89839 | 24610 ft | 447 kts | 149° |
| 2026-05-05 17:39 | 52.25198 | -1.87064 | 23887 ft | 443 kts | 149° |
| 2026-05-05 17:40 | 52.22629 | -1.84306 | 23127 ft | 441 kts | 149° |
| 2026-05-05 17:40 | 52.20083 | -1.81574 | 22446 ft | 435 kts | 149° |
| 2026-05-05 17:40 | 52.17562 | -1.78876 | 21783 ft | 431 kts | 149° |
| 2026-05-05 17:40 | 52.15069 | -1.76219 | 21144 ft | 426 kts | 149° |
| 2026-05-05 17:41 | 52.12601 | -1.73592 | 20544 ft | 422 kts | 148° |
| 2026-05-05 17:41 | 52.10152 | -1.70986 | 20097 ft | 417 kts | 148° |
| 2026-05-05 17:41 | 52.07739 | -1.68418 | 19876 ft | 416 kts | 148° |
| 2026-05-05 17:41 | 52.05297 | -1.65821 | 19040 ft | 419 kts | 148° |
| 2026-05-05 17:42 | 52.02913 | -1.63286 | 18783 ft | 411 kts | 148° |
| 2026-05-05 17:42 | 52.00518 | -1.60744 | 18519 ft | 409 kts | 148° |
| 2026-05-05 17:42 | 51.98146 | -1.58232 | 18125 ft | 406 kts | 148° |
| 2026-05-05 17:42 | 51.95781 | -1.55735 | 17770 ft | 404 kts | 148° |
| 2026-05-05 17:43 | 51.93430 | -1.53257 | 17410 ft | 403 kts | 148° |
| 2026-05-05 17:43 | 51.91088 | -1.50788 | 17062 ft | 401 kts | 148° |
| 2026-05-05 17:43 | 51.88784 | -1.48358 | 16708 ft | 400 kts | 148° |
| 2026-05-05 17:43 | 51.86427 | -1.45873 | 16366 ft | 398 kts | 148° |
| 2026-05-05 17:44 | 51.84109 | -1.43440 | 16013 ft | 396 kts | 148° |
| 2026-05-05 17:44 | 51.81945 | -1.41176 | 15689 ft | 395 kts | 148° |
| 2026-05-05 17:44 | 51.79788 | -1.38919 | 15360 ft | 394 kts | 148° |
| 2026-05-05 17:44 | 51.77522 | -1.36548 | 15022 ft | 392 kts | 148° |
| 2026-05-05 17:45 | 51.75241 | -1.34157 | 14816 ft | 391 kts | 148° |
| 2026-05-05 17:45 | 51.72957 | -1.31765 | 14678 ft | 391 kts | 148° |
| 2026-05-05 17:45 | 51.70675 | -1.29383 | 14514 ft | 390 kts | 148° |
| 2026-05-05 17:45 | 51.68396 | -1.27014 | 14316 ft | 390 kts | 148° |
| 2026-05-05 17:46 | 51.66116 | -1.24651 | 14166 ft | 389 kts | 148° |
| 2026-05-05 17:46 | 51.63866 | -1.22316 | 14008 ft | 389 kts | 148° |
| 2026-05-05 17:46 | 51.61572 | -1.19934 | 13850 ft | 388 kts | 148° |
| 2026-05-05 17:46 | 51.59312 | -1.17585 | 13678 ft | 387 kts | 148° |
| 2026-05-05 17:47 | 51.57051 | -1.15242 | 13513 ft | 386 kts | 148° |
| 2026-05-05 17:47 | 51.54793 | -1.12906 | 13347 ft | 386 kts | 148° |
| 2026-05-05 17:47 | 51.52539 | -1.10578 | 13199 ft | 385 kts | 148° |
| 2026-05-05 17:47 | 51.50287 | -1.08255 | 13030 ft | 384 kts | 148° |
| 2026-05-05 17:48 | 51.48041 | -1.05943 | 12838 ft | 384 kts | 148° |
| 2026-05-05 17:48 | 51.45801 | -1.03639 | 12497 ft | 382 kts | 148° |
| 2026-05-05 17:48 | 51.43574 | -1.01352 | 12137 ft | 379 kts | 147° |
| 2026-05-05 17:48 | 51.41374 | -0.99094 | 11778 ft | 378 kts | 147° |
| 2026-05-05 17:49 | 51.39169 | -0.96834 | 11424 ft | 376 kts | 147° |
| 2026-05-05 17:49 | 51.36973 | -0.94578 | 11080 ft | 374 kts | 147° |
| 2026-05-05 17:49 | 51.34793 | -0.92339 | 10735 ft | 372 kts | 147° |
| 2026-05-05 17:49 | 51.32610 | -0.90105 | 10418 ft | 371 kts | 147° |
| 2026-05-05 17:50 | 51.30438 | -0.87886 | 10077 ft | 370 kts | 147° |
| 2026-05-05 17:50 | 51.28281 | -0.85685 | 9733 ft | 364 kts | 147° |
| 2026-05-05 17:50 | 51.26172 | -0.83539 | 9274 ft | 356 kts | 147° |
| 2026-05-05 17:50 | 51.24086 | -0.81418 | 8641 ft | 353 kts | 147° |
| 2026-05-05 17:51 | 51.22064 | -0.79364 | 8024 ft | 338 kts | 147° |
| 2026-05-05 17:51 | 51.20117 | -0.77395 | 7415 ft | 325 kts | 147° |
| 2026-05-05 17:51 | 51.18203 | -0.75600 | 6862 ft | 314 kts | 150° |
| 2026-05-05 17:51 | 51.16323 | -0.73979 | 6440 ft | 300 kts | 151° |
| 2026-05-05 17:52 | 51.14534 | -0.72456 | 6057 ft | 286 kts | 151° |
| 2026-05-05 17:52 | 51.12870 | -0.70870 | 5668 ft | 271 kts | 137° |
| 2026-05-05 17:52 | 51.11800 | -0.68541 | 5276 ft | 255 kts | 111° |
| 2026-05-05 17:52 | 51.11185 | -0.65966 | 4901 ft | 244 kts | 107° |
| 2026-05-05 17:53 | 51.10664 | -0.63507 | 4521 ft | 236 kts | 106° |
| 2026-05-05 17:53 | 51.10153 | -0.61061 | 4134 ft | 231 kts | 106° |
| 2026-05-05 17:53 | 51.09982 | -0.60239 | 4036 ft | 228 kts | 106° |
| 2026-05-05 17:54 | 51.09686 | -0.58823 | 4216 ft | 204 kts | 104° |
| 2026-05-05 17:54 | 51.09543 | -0.56757 | 4236 ft | 192 kts | 79° |
| 2026-05-05 17:54 | 51.09815 | -0.54713 | 4141 ft | 188 kts | 75° |
| 2026-05-05 17:54 | 51.10102 | -0.52715 | 4049 ft | 180 kts | 75° |
| 2026-05-05 17:55 | 51.10368 | -0.50836 | 3985 ft | 174 kts | 75° |
| 2026-05-05 17:55 | 51.10636 | -0.48945 | 3798 ft | 175 kts | 75° |
| 2026-05-05 17:55 | 51.10900 | -0.47075 | 3576 ft | 174 kts | 75° |
| 2026-05-05 17:55 | 51.11163 | -0.45210 | 3350 ft | 169 kts | 75° |
| 2026-05-05 17:56 | 51.11415 | -0.43415 | 3129 ft | 165 kts | 75° |
| 2026-05-05 17:56 | 51.11663 | -0.41647 | 2907 ft | 163 kts | 75° |
| 2026-05-05 17:56 | 51.11825 | -0.40493 | 2764 ft | 161 kts | 75° |
| 2026-05-05 17:56 | 51.12070 | -0.38751 | 2550 ft | 161 kts | 75° |
| 2026-05-05 17:57 | 51.12312 | -0.37020 | 2330 ft | 159 kts | 76° |
| 2026-05-05 17:57 | 51.12552 | -0.35305 | 2117 ft | 158 kts | 76° |
| 2026-05-05 17:57 | 51.12791 | -0.33594 | 1903 ft | 158 kts | 76° |
| 2026-05-05 17:57 | 51.13028 | -0.31893 | 1691 ft | 156 kts | 77° |
| 2026-05-05 17:58 | 51.13252 | -0.30288 | 1483 ft | 155 kts | 77° |
| 2026-05-05 17:58 | 51.13481 | -0.28642 | 1270 ft | 148 kts | 76° |
| 2026-05-05 17:58 | 51.13693 | -0.27116 | 1082 ft | 138 kts | 77° |
| 2026-05-05 17:58 | 51.13894 | -0.25671 | 885 ft | 135 kts | 77° |
| 2026-05-05 17:59 | 51.14096 | -0.24215 | 691 ft | 135 kts | 77° |
| 2026-05-05 17:59 | 51.14298 | -0.22756 | 517 ft | 134 kts | 78° |
| 2026-05-05 17:59 | 51.14494 | -0.21342 | 336 ft | 133 kts | 78° |
| 2026-05-05 17:59 | 51.14693 | -0.19920 | 214 ft | 125 kts | 78° |
| 2026-05-05 18:00 | 51.14847 | -0.18803 | 210 ft | 81 kts | 78° |
| 2026-05-05 18:00 | 51.14931 | -0.18195 | 212 ft | 34 kts | 77° |
| 2026-05-05 18:00 | 51.15018 | -0.17875 | 209 ft | 22 kts | 53° |
| 2026-05-05 18:00 | 51.15079 | -0.17767 | 211 ft | 15 kts | 29° |
| 2026-05-05 18:01 | 51.15111 | -0.17760 | 206 ft | 0 kts | 357° |
| 2026-05-05 18:03 | 51.15112 | -0.17761 | 206 ft | 0 kts | 357° |
| 2026-05-05 18:03 | 51.15140 | -0.17765 | 205 ft | 12 kts | 354° |
| 2026-05-05 18:03 | 51.15233 | -0.17799 | 213 ft | 14 kts | 318° |
| 2026-05-05 18:03 | 51.15235 | -0.17934 | 207 ft | 12 kts | 257° |
| 2026-05-05 18:04 | 51.15223 | -0.18059 | 205 ft | 12 kts | 283° |
| 2026-05-05 18:04 | 51.15325 | -0.18126 | 205 ft | 18 kts | 349° |
| 2026-05-05 18:04 | 51.15452 | -0.18172 | 208 ft | 19 kts | 342° |
| 2026-05-05 18:04 | 51.15582 | -0.18225 | 205 ft | 19 kts | 348° |
| 2026-05-05 18:05 | 51.15667 | -0.18193 | 205 ft | 13 kts | 65° |
| 2026-05-05 18:05 | 51.15700 | -0.18052 | 213 ft | 14 kts | 35° |
| 2026-05-05 18:05 | 51.15799 | -0.18068 | 209 ft | 15 kts | 348° |
| 2026-05-05 18:05 | 51.15909 | -0.18106 | 205 ft | 17 kts | 347° |
| 2026-05-05 18:06 | 51.16021 | -0.18144 | 208 ft | 12 kts | 347° |
| 2026-05-05 18:06 | 51.16049 | -0.18125 | 208 ft | 7 kts | 57° |
| 2026-05-05 18:06 | 51.16063 | -0.18045 | 207 ft | 4 kts | 77° |
| 2026-05-05 18:06 | 51.16066 | -0.18023 | 213 ft | 0 kts | 77° |
| 2026-05-05 18:07 | 51.16066 | -0.18021 | 213 ft | 0 kts | 77° |